Time;durP1;ratioP1;P1;durP2;ratioP2;P2;SDS_P1;SDS_P2;PMS_P1;PMS_P2;Temp;Humidity;BMP_temperature;BMP_pressure;BME280_temperature;BME280_humidity;BME280_pressure;Samples;Min_cycle;Max_cycle;Signal;HPM_P1;HPM_P2
2020/12/07 00:01:37;;;;;;;11.55;5.40;;;;;;;6.47;77.63;99358.59;4973509;28;20469;-77
2020/12/07 00:04:03;;;;;;;10.95;5.15;;;;;;;6.48;77.26;99355.00;4957351;28;20039;-77
2020/12/07 00:06:34;;;;;;;9.70;4.53;;;;;;;6.53;77.45;99374.13;4972997;28;20035;-76
2020/12/07 00:08:59;;;;;;;12.20;5.50;;;;;;;6.51;77.48;99370.69;4974650;28;20038;-77
2020/12/07 00:11:24;;;;;;;10.93;4.72;;;;;;;6.56;77.18;99361.56;4973324;28;20037;-76
2020/12/07 00:13:50;;;;;;;12.48;5.28;;;;;;;6.59;77.37;99368.47;4956903;28;20476;-77
2020/12/07 00:16:15;;;;;;;9.93;5.10;;;;;;;6.70;76.83;99381.94;4974590;28;20031;-77
2020/12/07 00:18:43;;;;;;;11.82;5.40;;;;;;;6.61;77.03;99377.19;4972881;28;20042;-78
2020/12/07 00:21:09;;;;;;;9.95;5.30;;;;;;;6.60;77.34;99388.72;4974573;28;20035;-77
2020/12/07 00:23:35;;;;;;;13.07;5.85;;;;;;;6.58;77.43;99398.56;4974474;28;20404;-76
2020/12/07 00:26:01;;;;;;;13.10;6.43;;;;;;;6.50;77.31;99369.00;4973929;28;20049;-77
2020/12/07 00:28:26;;;;;;;12.80;6.22;;;;;;;6.52;77.26;99375.91;4973393;28;20456;-77
2020/12/07 00:30:51;;;;;;;12.10;5.80;;;;;;;6.57;77.18;99394.22;4973782;28;20035;-77
2020/12/07 00:33:17;;;;;;;11.18;5.43;;;;;;;6.53;77.03;99384.72;4974243;28;20031;-77
2020/12/07 00:35:42;;;;;;;11.55;5.93;;;;;;;6.51;77.21;99390.09;4974212;28;20089;-77
2020/12/07 00:38:08;;;;;;;11.30;5.53;;;;;;;6.41;76.77;99349.19;4974096;28;20035;-78
2020/12/07 00:40:33;;;;;;;12.30;6.00;;;;;;;6.50;76.95;99390.19;4972988;28;20067;-78
2020/12/07 00:42:59;;;;;;;11.18;5.32;;;;;;;6.58;76.95;99403.88;4973861;28;20815;-78
2020/12/07 00:45:24;;;;;;;10.65;5.38;;;;;;;6.54;76.92;99402.31;4974282;28;20035;-78
2020/12/07 00:47:50;;;;;;;13.68;6.03;;;;;;;6.57;76.67;99397.72;4972725;28;20388;-78
2020/12/07 00:50:15;;;;;;;11.05;5.53;;;;;;;6.69;76.43;99400.59;4975767;28;20046;-79
2020/12/07 00:52:41;;;;;;;11.05;5.40;;;;;;;6.60;76.76;99404.63;4975697;28;20099;-77
2020/12/07 00:55:06;;;;;;;12.10;5.90;;;;;;;6.66;76.42;99404.28;4993489;28;20034;-78
2020/12/07 00:57:31;;;;;;;11.80;5.15;;;;;;;6.68;76.21;99398.88;4960085;28;20544;-79
2020/12/07 00:59:57;;;;;;;8.50;4.68;;;;;;;6.52;76.11;99375.06;4992594;28;20042;-80
2020/12/07 01:02:22;;;;;;;10.07;4.80;;;;;;;6.75;75.62;99403.72;4976196;28;20379;-77
2020/12/07 01:04:48;;;;;;;11.20;4.60;;;;;;;6.79;75.57;99401.78;4992967;28;20456;-77
2020/12/07 01:07:13;;;;;;;9.80;4.43;;;;;;;6.68;75.55;99388.28;4959995;28;20071;-78
2020/12/07 01:09:39;;;;;;;9.15;4.10;;;;;;;6.69;75.30;99379.41;4976099;28;20073;-77
2020/12/07 01:12:05;;;;;;;8.85;4.10;;;;;;;6.77;74.46;99399.22;4975866;28;20038;-77
2020/12/07 01:14:30;;;;;;;9.20;3.88;;;;;;;6.87;74.92;99395.06;4975783;28;20038;-77
2020/12/07 01:16:58;;;;;;;9.57;4.47;;;;;;;6.66;74.60;99367.19;4994712;28;20390;-78
2020/12/07 01:19:24;;;;;;;7.97;4.18;;;;;;;6.53;74.88;99358.22;4979381;28;20558;-77
2020/12/07 01:21:49;;;;;;;7.32;4.05;;;;;;;6.86;74.55;99409.28;4996854;28;20046;-78
2020/12/07 01:24:15;;;;;;;9.80;4.40;;;;;;;6.84;74.65;99410.28;4997182;28;20035;-78
2020/12/07 01:26:40;;;;;;;8.05;4.00;;;;;;;6.87;74.63;99407.47;4997009;28;20030;-78
2020/12/07 01:29:08;;;;;;;8.90;3.88;;;;;;;6.84;74.65;99411.13;4996534;28;20463;-77
2020/12/07 01:31:33;;;;;;;8.13;4.00;;;;;;;6.78;74.74;99416.81;4997083;28;20088;-78
2020/12/07 01:33:59;;;;;;;8.30;3.97;;;;;;;6.83;74.66;99419.19;4979177;28;20054;-78
2020/12/07 01:36:25;;;;;;;8.15;4.20;;;;;;;6.84;74.69;99412.94;4996918;28;20030;-78
2020/12/07 01:38:52;;;;;;;9.30;4.20;;;;;;;6.67;75.12;99394.53;4962956;28;20093;-77
2020/12/07 01:41:18;;;;;;;8.48;4.28;;;;;;;6.51;74.84;99368.06;4979311;28;20039;-77
2020/12/07 01:43:45;;;;;;;8.40;3.78;;;;;;;6.79;74.53;99402.63;4996388;28;20486;-76
2020/12/07 01:46:16;;;;;;;7.60;3.83;;;;;;;6.83;74.83;99404.13;4996654;28;20034;-77
2020/12/07 01:48:41;;;;;;;8.38;3.65;;;;;;;6.76;74.54;99399.31;4996603;28;20039;-76
2020/12/07 01:51:07;;;;;;;6.72;3.55;;;;;;;6.77;74.59;99420.41;4978437;28;20061;-76
2020/12/07 01:53:32;;;;;;;7.68;4.00;;;;;;;6.69;74.56;99422.66;4979075;28;20041;-75
2020/12/07 01:55:59;;;;;;;7.40;4.10;;;;;;;6.32;74.85;99353.22;4962528;28;20125;-75
2020/12/07 01:58:24;;;;;;;9.60;4.20;;;;;;;6.43;75.57;99370.28;4996124;28;20105;-76
2020/12/07 02:00:50;;;;;;;7.40;3.70;;;;;;;6.59;74.74;99390.53;4996285;28;20042;-77
2020/12/07 02:03:15;;;;;;;7.93;4.18;;;;;;;6.64;75.21;99398.19;4978538;28;20125;-75
2020/12/07 02:05:41;;;;;;;8.15;3.35;;;;;;;6.67;74.95;99398.03;4978807;28;20037;-75
2020/12/07 02:08:17;;;;;;;7.88;4.22;;;;;;;6.32;74.86;99344.41;4995794;28;20042;-75
2020/12/07 02:10:44;;;;;;;10.15;4.13;;;;;;;6.58;75.17;99377.38;4995851;28;20030;-75
2020/12/07 02:13:10;;;;;;;8.10;4.20;;;;;;;6.68;74.98;99398.88;4978548;28;20031;-75
2020/12/07 02:15:36;;;;;;;8.38;3.85;;;;;;;6.35;75.40;99372.50;4996126;28;20037;-75
2020/12/07 02:18:01;;;;;;;8.13;4.13;;;;;;;6.51;76.25;99403.34;4978301;28;20063;-75
2020/12/07 02:20:27;;;;;;;8.10;4.05;;;;;;;6.54;75.68;99400.50;4996134;28;20046;-76
2020/12/07 02:22:52;;;;;;;9.63;4.10;;;;;;;6.45;76.37;99408.13;4995696;28;20070;-75
2020/12/07 02:25:21;;;;;;;8.57;4.45;;;;;;;6.58;75.45;99411.81;4995713;28;20034;-75
2020/12/07 02:27:51;;;;;;;8.18;4.07;;;;;;;6.47;75.27;99380.63;4994607;28;20089;-76
2020/12/07 02:30:18;;;;;;;8.43;4.57;;;;;;;6.40;74.93;99373.97;4995894;28;20053;-74
2020/12/07 02:32:44;;;;;;;11.02;4.47;;;;;;;6.61;75.13;99416.94;4962065;28;20038;-73
2020/12/07 02:35:11;;;;;;;8.55;4.20;;;;;;;6.61;75.29;99411.63;4961923;28;20042;-75
2020/12/07 02:37:37;;;;;;;11.63;4.78;;;;;;;6.48;75.65;99397.38;4978258;28;20034;-75
2020/12/07 02:40:04;;;;;;;8.68;4.45;;;;;;;6.54;75.96;99418.22;4995655;28;20030;-76
2020/12/07 02:42:32;;;;;;;9.32;4.38;;;;;;;6.59;75.06;99394.97;4962158;28;20034;-75
2020/12/07 02:44:59;;;;;;;7.95;4.25;;;;;;;6.62;75.29;99404.53;4978286;28;20030;-78
2020/12/07 02:47:26;;;;;;;7.85;4.30;;;;;;;6.67;75.01;99403.34;4978331;28;20488;-77
2020/12/07 02:49:54;;;;;;;9.57;4.18;;;;;;;6.54;74.54;99381.13;4977821;28;20153;-77
2020/12/07 02:52:24;;;;;;;8.15;4.15;;;;;;;6.73;74.97;99408.25;4995098;28;20077;-77
2020/12/07 02:54:57;;;;;;;9.38;4.57;;;;;;;6.62;74.80;99394.78;4994907;28;20133;-78
2020/12/07 02:57:26;;;;;;;8.63;4.75;;;;;;;6.74;74.61;99399.38;4995388;28;20041;-77
2020/12/07 02:59:52;;;;;;;9.77;4.57;;;;;;;6.53;74.50;99366.16;4977894;28;20042;-77
2020/12/07 03:02:18;;;;;;;8.93;4.43;;;;;;;6.76;74.15;99392.22;4995370;28;20062;-76
2020/12/07 03:04:44;;;;;;;8.95;4.47;;;;;;;6.65;74.22;99384.00;4995230;28;20069;-78
2020/12/07 03:07:11;;;;;;;8.45;4.78;;;;;;;6.71;74.61;99388.97;4977598;28;20042;-78
2020/12/07 03:09:36;;;;;;;8.32;3.90;;;;;;;6.78;73.93;99385.00;4977927;28;20044;-78
2020/12/07 03:12:02;;;;;;;9.60;3.97;;;;;;;6.83;73.76;99385.59;4977732;28;20035;-76
2020/12/07 03:14:28;;;;;;;7.38;3.95;;;;;;;6.74;73.57;99366.72;4977578;28;20034;-78
2020/12/07 03:16:54;;;;;;;8.45;4.32;;;;;;;6.81;73.71;99384.81;4994903;28;20097;-76
2020/12/07 03:19:19;;;;;;;9.82;4.57;;;;;;;6.57;73.76;99336.78;4977851;28;20050;-77
2020/12/07 03:21:45;;;;;;;7.53;3.92;;;;;;;6.83;73.63;99372.31;4994605;28;20037;-75
2020/12/07 03:24:11;;;;;;;9.45;5.00;;;;;;;6.78;73.86;99362.97;4977410;28;20546;-74
2020/12/07 03:26:37;;;;;;;10.05;4.60;;;;;;;6.76;74.17;99359.56;4977490;28;20035;-75
2020/12/07 03:29:03;;;;;;;8.93;4.55;;;;;;;6.74;74.14;99345.50;4994554;28;20030;-74
2020/12/07 03:31:34;;;;;;;8.40;4.20;;;;;;;6.75;74.12;99348.06;4994598;28;20046;-75
2020/12/07 03:34:00;;;;;;;7.65;4.03;;;;;;;6.73;73.69;99344.66;4977524;28;20049;-77
2020/12/07 03:36:26;;;;;;;9.23;4.18;;;;;;;6.78;73.91;99355.84;4994609;28;20027;-77
2020/12/07 03:38:56;;;;;;;9.15;4.18;;;;;;;6.81;73.63;99360.13;4976499;28;20046;-76
2020/12/07 03:41:21;;;;;;;8.73;4.50;;;;;;;6.79;73.95;99354.06;4960556;28;20038;-77
2020/12/07 03:43:47;;;;;;;10.32;4.22;;;;;;;6.81;74.09;99358.31;4977215;28;20118;-78
2020/12/07 03:46:13;;;;;;;10.70;4.70;;;;;;;6.83;73.61;99344.97;4994116;28;20037;-80
2020/12/07 03:48:39;;;;;;;8.30;4.40;;;;;;;6.75;73.81;99350.72;4994564;28;20046;-80
2020/12/07 03:51:05;;;;;;;9.10;4.20;;;;;;;6.72;73.85;99335.00;4973078;28;20058;-80
2020/12/07 03:53:32;;;;;;;9.50;4.57;;;;;;;6.77;74.07;99351.50;4957556;28;20053;-79
2020/12/07 03:55:58;;;;;;;7.85;4.00;;;;;;;6.70;74.03;99349.28;4957364;28;20506;-78
2020/12/07 03:58:24;;;;;;;8.75;4.05;;;;;;;6.73;74.06;99343.81;4974811;28;20039;-79
2020/12/07 04:00:49;;;;;;;10.07;4.57;;;;;;;6.76;73.60;99360.41;4974658;28;20039;-79
2020/12/07 04:03:15;;;;;;;9.75;4.38;;;;;;;6.78;73.77;99362.97;4973152;28;20035;-78
2020/12/07 04:05:44;;;;;;;10.18;4.35;;;;;;;6.73;73.69;99359.72;4973525;28;20031;-78
2020/12/07 04:08:10;;;;;;;8.63;4.05;;;;;;;6.76;73.97;99364.84;4973126;28;20042;-78
2020/12/07 04:10:39;;;;;;;7.70;4.25;;;;;;;6.77;73.70;99364.75;4957217;28;20088;-78
2020/12/07 04:13:05;;;;;;;7.68;4.00;;;;;;;6.78;73.59;99353.22;4974199;28;20113;-77
2020/12/07 04:15:31;;;;;;;8.38;4.28;;;;;;;6.73;73.85;99370.31;4973153;28;20046;-77
2020/12/07 04:17:57;;;;;;;8.82;4.15;;;;;;;6.54;73.73;99338.72;4973955;28;20031;-77
2020/12/07 04:20:22;;;;;;;8.55;4.25;;;;;;;6.63;74.06;99358.53;4974326;28;20396;-77
2020/12/07 04:22:48;;;;;;;8.55;4.60;;;;;;;6.77;73.70;99378.00;4974595;28;20030;-77
2020/12/07 04:25:13;;;;;;;10.48;4.82;;;;;;;6.71;74.13;99377.50;4973918;28;20043;-77
2020/12/07 04:27:39;;;;;;;7.35;3.72;;;;;;;6.72;73.58;99376.56;4973073;28;20090;-76
2020/12/07 04:30:05;;;;;;;7.88;4.03;;;;;;;6.71;73.70;99382.81;4974030;28;20461;-78
2020/12/07 04:32:30;;;;;;;10.77;4.43;;;;;;;6.81;73.72;99397.22;4972832;28;20030;-76
2020/12/07 04:34:56;;;;;;;8.40;4.03;;;;;;;6.78;73.76;99389.47;4973085;28;20085;-78
2020/12/07 04:37:22;;;;;;;8.18;4.00;;;;;;;6.83;73.54;99382.94;4973171;28;20034;-78
2020/12/07 04:39:47;;;;;;;9.13;3.90;;;;;;;6.82;73.64;99386.53;4973137;28;20066;-77
2020/12/07 04:42:14;;;;;;;8.00;3.90;;;;;;;6.79;73.79;99396.47;4972634;28;20484;-77
2020/12/07 04:44:39;;;;;;;8.57;4.35;;;;;;;6.75;73.63;99382.50;4973188;28;20109;-76
2020/12/07 04:47:06;;;;;;;8.05;3.88;;;;;;;6.58;73.80;99361.47;4956474;28;20030;-76
2020/12/07 04:49:32;;;;;;;8.50;4.05;;;;;;;6.82;73.61;99401.56;4972761;28;20039;-77
2020/12/07 04:51:58;;;;;;;8.45;4.68;;;;;;;6.83;73.62;99417.38;4974509;28;20051;-76
2020/12/07 04:54:25;;;;;;;10.55;4.85;;;;;;;6.83;73.48;99420.03;4976770;28;20035;-76
2020/12/07 04:56:56;;;;;;;8.85;4.28;;;;;;;6.75;73.80;99409.03;4977976;28;20039;-75
2020/12/07 04:59:22;;;;;;;7.40;4.50;;;;;;;6.78;73.33;99415.97;4978251;28;20035;-75
2020/12/07 05:01:50;;;;;;;8.40;4.18;;;;;;;6.62;73.35;99400.09;4978030;28;20058;-74
2020/12/07 05:04:16;;;;;;;8.13;3.92;;;;;;;6.78;73.18;99427.41;4976359;28;20242;-78
2020/12/07 05:06:42;;;;;;;8.23;3.97;;;;;;;6.81;73.36;99443.13;4978013;28;20035;-76
2020/12/07 05:09:08;;;;;;;9.57;3.95;;;;;;;6.81;73.53;99444.94;4977402;28;20524;-75
2020/12/07 05:11:33;;;;;;;8.23;4.50;;;;;;;6.85;73.28;99434.09;4976495;28;20489;-75
2020/12/07 05:14:10;;;;;;;7.88;4.10;;;;;;;6.85;73.28;99434.09;4977315;28;20035;-76
2020/12/07 05:16:36;;;;;;;11.40;4.60;;;;;;;6.79;73.47;99423.81;4977738;28;20114;-78
2020/12/07 05:19:08;;;;;;;7.85;3.55;;;;;;;6.92;72.77;99429.25;4976150;28;20030;-78
2020/12/07 05:21:34;;;;;;;9.52;4.40;;;;;;;6.94;72.77;99431.81;4977771;28;20158;-75
2020/12/07 05:23:59;;;;;;;7.85;4.10;;;;;;;6.74;74.17;99425.03;4959963;28;20031;-76
2020/12/07 05:26:26;;;;;;;9.88;4.88;;;;;;;6.78;73.83;99437.16;4977762;28;20468;-75
2020/12/07 05:28:54;;;;;;;7.75;3.88;;;;;;;6.89;72.93;99443.56;4977227;28;20447;-76
2020/12/07 05:31:21;;;;;;;8.57;3.97;;;;;;;6.94;72.91;99447.72;4960301;28;20053;-76
2020/12/07 05:33:48;;;;;;;6.82;3.75;;;;;;;6.92;73.09;99439.00;4960050;28;20065;-75
2020/12/07 05:36:15;;;;;;;8.35;3.92;;;;;;;6.89;73.68;99450.66;4977167;28;20432;-78
2020/12/07 05:38:42;;;;;;;8.52;4.55;;;;;;;6.80;73.43;99430.84;4976365;28;20124;-78
2020/12/07 05:41:08;;;;;;;8.77;4.60;;;;;;;6.78;73.46;99422.13;4975877;28;20109;-82
2020/12/07 05:43:36;;;;;;;10.18;5.15;;;;;;;6.89;73.36;99440.91;4975954;28;20452;-79
2020/12/07 05:46:02;;;;;;;9.55;4.97;;;;;;;6.94;73.15;99447.72;4976805;28;20098;-77
2020/12/07 05:48:35;;;;;;;11.00;5.60;;;;;;;6.93;73.30;99452.19;4975817;28;20137;-77
2020/12/07 05:51:04;;;;;;;;;;;;;;;6.92;73.04;99460.22;4975848;28;20460;-77
2020/12/07 05:53:40;;;;;;;7.68;3.95;;;;;;;6.69;72.84;99422.66;4976731;28;19925;-76
2020/12/07 05:56:08;;;;;;;8.13;4.10;;;;;;;6.78;72.94;99430.06;4976531;28;20035;-77
2020/12/07 05:58:39;;;;;;;9.20;3.72;;;;;;;6.89;72.87;99451.50;4976886;28;20097;-76
2020/12/07 06:01:06;;;;;;;9.18;3.95;;;;;;;6.87;73.13;99448.09;4975320;28;20033;-77
2020/12/07 06:03:34;;;;;;;8.38;4.25;;;;;;;6.83;73.20;99451.84;4958230;28;20400;-78
2020/12/07 06:05:59;;;;;;;7.88;3.95;;;;;;;6.83;73.06;99461.59;4977056;28;20073;-76
2020/12/07 06:08:34;;;;;;;6.43;3.70;;;;;;;6.79;72.99;99452.97;4976521;28;20492;-76
2020/12/07 06:11:11;;;;;;;8.85;4.43;;;;;;;6.58;73.33;99425.91;4975670;28;20372;-76
2020/12/07 06:13:38;;;;;;;9.65;4.10;;;;;;;6.83;73.14;99461.59;4976734;28;20057;-77
2020/12/07 06:16:06;;;;;;;8.23;4.10;;;;;;;6.71;73.24;99434.00;4976508;28;20101;-77
2020/12/07 06:18:41;;;;;;;9.38;5.20;;;;;;;6.78;73.34;99442.47;4959253;28;20038;-76
2020/12/07 06:21:12;;;;;;;7.35;3.78;;;;;;;6.76;73.46;99441.72;4976341;28;20185;-77
2020/12/07 06:23:41;;;;;;;7.97;4.30;;;;;;;6.68;73.37;99428.91;4976512;28;20527;-78
2020/12/07 06:26:09;;;;;;;8.90;4.13;;;;;;;6.63;73.69;99432.72;4975053;28;20059;-75
2020/12/07 06:28:37;;;;;;;8.73;4.50;;;;;;;6.72;74.02;99456.06;4976416;28;20034;-75
2020/12/07 06:31:08;;;;;;;7.95;4.35;;;;;;;6.75;73.91;99451.44;4976274;28;20499;-78
2020/12/07 06:33:47;;;;;;;9.40;4.07;;;;;;;6.71;74.00;99446.41;4976215;28;20069;-73
2020/12/07 06:36:24;;;;;;;8.27;4.15;;;;;;;6.68;74.04;99442.16;4976037;28;20026;-75
2020/12/07 06:38:50;;;;;;;9.55;4.03;;;;;;;6.49;73.63;99417.63;4975012;28;20480;-74
2020/12/07 06:41:36;;;;;;;7.03;3.55;;;;;;;6.72;73.70;99454.25;4975961;28;20058;-74
2020/12/07 06:44:05;;;;;;;10.95;3.88;;;;;;;6.70;73.99;99450.84;4976291;28;20108;-76
2020/12/07 06:47:00;;;;;;;9.07;3.80;;;;;;;6.69;74.03;99443.84;4976047;28;20031;-77
2020/12/07 06:49:33;;;;;;;8.93;4.15;;;;;;;6.71;74.43;99454.34;4976131;28;20043;-76
2020/12/07 06:52:06;;;;;;;7.57;4.05;;;;;;;6.71;74.09;99451.72;4991873;28;20073;-75
2020/12/07 06:57:36;;;;;;;7.53;4.22;;;;;;;6.59;74.65;99440.00;4995316;28;20448;-77
2020/12/07 07:00:09;;;;;;;8.65;4.13;;;;;;;6.77;74.02;99452.22;4978083;28;20468;-76
2020/12/07 07:02:41;;;;;;;11.77;4.13;;;;;;;6.66;74.16;99432.56;4995069;28;20030;-75
2020/12/07 07:05:08;;;;;;;9.40;4.05;;;;;;;6.71;74.05;99435.81;4978321;28;20034;-78
2020/12/07 07:07:34;;;;;;;8.10;4.05;;;;;;;6.76;74.27;99436.41;4995273;28;20034;-76
2020/12/07 07:10:00;;;;;;;7.97;4.10;;;;;;;6.71;74.00;99439.31;4995027;28;20114;-73
2020/12/07 07:12:26;;;;;;;7.32;3.58;;;;;;;6.80;73.99;99467.94;4977573;28;20034;-74
2020/12/07 07:14:53;;;;;;;7.55;4.15;;;;;;;6.79;74.02;99462.72;4994594;28;20092;-74
2020/12/07 07:17:20;;;;;;;8.27;4.35;;;;;;;6.72;74.22;99464.88;4994443;28;20514;-75
2020/12/07 07:19:46;;;;;;;7.90;4.07;;;;;;;6.86;74.43;99466.75;4996181;28;20520;-73
2020/12/07 07:22:12;;;;;;;7.95;3.97;;;;;;;6.92;74.41;99465.53;4977345;28;20035;-74
2020/12/07 07:30:17;;;;;;;8.70;4.78;;;;;;;7.00;73.86;99477.41;4994629;28;20037;-73
2020/12/07 07:32:45;;;;;;;9.65;4.22;;;;;;;7.08;73.55;99487.56;4977245;28;20038;-71
2020/12/07 07:35:12;;;;;;;8.65;4.32;;;;;;;7.12;73.50;99495.25;4976998;28;20411;-73
2020/12/07 07:37:39;;;;;;;9.00;4.22;;;;;;;7.15;73.31;99489.78;4994433;28;20042;-72
2020/12/07 07:40:07;;;;;;;9.43;4.80;;;;;;;7.18;73.41;99499.34;4977150;28;20089;-73
2020/12/07 07:42:39;;;;;;;8.45;4.00;;;;;;;7.12;73.55;99497.91;4977156;28;20041;-73
2020/12/07 07:45:06;;;;;;;9.45;4.72;;;;;;;6.92;73.59;99476.13;4994494;28;20034;-72
2020/12/07 07:47:40;;;;;;;10.63;5.13;;;;;;;6.99;73.74;99493.41;4960803;28;20484;-72
2020/12/07 07:50:41;;;;;;;8.95;4.30;;;;;;;6.89;73.97;99464.75;4994133;28;20030;-75
2020/12/07 08:15:39;;;;;;;9.30;5.05;;;;;;;7.02;73.99;99503.81;4978254;28;20467;-72
2020/12/07 08:18:17;;;;;;;9.13;4.72;;;;;;;7.14;73.65;99516.38;4993929;28;20030;-72
2020/12/07 08:20:59;;;;;;;12.27;5.63;;;;;;;7.14;74.25;99517.25;4994041;28;20038;-73
2020/12/07 08:23:26;;;;;;;9.93;4.88;;;;;;;7.29;73.64;99517.28;4993657;28;20049;-73
2020/12/07 08:25:52;;;;;;;11.98;5.18;;;;;;;7.44;73.01;99527.88;4993067;28;20486;-72
2020/12/07 08:28:23;;;;;;;9.57;4.70;;;;;;;7.45;72.51;99518.13;4993374;28;20026;-73
2020/12/07 08:31:07;;;;;;;9.38;4.97;;;;;;;7.56;72.46;99530.75;4993862;28;20468;-73
2020/12/07 08:33:35;;;;;;;9.55;4.82;;;;;;;7.54;72.74;99537.94;4993306;28;20177;-71
2020/12/07 08:36:01;;;;;;;12.50;4.97;;;;;;;7.54;72.76;99527.34;4993745;28;20080;-71
2020/12/07 08:38:34;;;;;;;11.02;4.88;;;;;;;7.47;73.23;99516.22;4993197;28;20034;-73
2020/12/07 08:41:13;;;;;;;7.33;4.17;;;;;;;7.52;72.88;99540.66;4993836;28;20402;-72
2020/12/07 08:43:47;;;;;;;12.95;5.70;;;;;;;7.46;73.43;99541.91;4993918;28;20061;-71
2020/12/07 08:46:15;;;;;;;9.38;5.18;;;;;;;7.50;73.30;99539.91;4993870;28;20030;-73
2020/12/07 08:48:41;;;;;;;11.43;5.53;;;;;;;7.31;74.25;99537.47;4993618;28;20035;-74
2020/12/07 08:51:07;;;;;;;9.77;5.00;;;;;;;7.42;73.63;99528.88;4976059;28;20107;-73
2020/12/07 08:53:33;;;;;;;10.43;5.45;;;;;;;7.50;73.04;99533.75;4993504;28;20031;-72
2020/12/07 08:55:59;;;;;;;10.50;5.75;;;;;;;7.41;73.39;99532.47;4993873;28;20030;-72
2020/12/07 08:58:25;;;;;;;8.50;5.28;;;;;;;7.34;73.52;99550.59;4975943;28;20419;-72
2020/12/07 09:00:50;;;;;;;8.95;4.78;;;;;;;7.22;74.06;99538.00;4976151;28;20066;-72
2020/12/07 09:03:16;;;;;;;11.88;5.75;;;;;;;7.24;74.50;99546.75;4975660;28;20383;-72
2020/12/07 09:05:41;;;;;;;14.77;5.38;;;;;;;7.29;74.37;99555.28;4993394;28;20045;-72
2020/12/07 09:08:07;;;;;;;12.55;6.00;;;;;;;7.22;74.93;99539.81;4993547;28;20040;-72
2020/12/07 09:10:34;;;;;;;11.85;5.57;;;;;;;6.98;75.18;99502.31;4992990;28;20117;-71
2020/12/07 09:13:00;;;;;;;11.65;5.90;;;;;;;7.19;75.59;99540.84;4993477;28;20039;-72
2020/12/07 09:15:25;;;;;;;11.18;4.68;;;;;;;7.20;74.75;99523.97;4976069;28;20118;-72
2020/12/07 09:17:51;;;;;;;9.52;5.35;;;;;;;6.98;74.80;99497.84;4959879;28;20038;-73
2020/12/07 09:20:16;;;;;;;8.43;5.38;;;;;;;7.23;75.25;99549.47;4976078;28;20049;-73
2020/12/07 09:22:42;;;;;;;11.93;6.05;;;;;;;7.18;76.05;99549.75;4993333;28;20456;-72
2020/12/07 09:25:07;;;;;;;11.80;6.40;;;;;;;7.08;76.34;99533.50;4959887;28;20447;-73
2020/12/07 09:27:32;;;;;;;11.77;6.03;;;;;;;7.09;75.72;99521.09;4993089;28;20038;-72
2020/12/07 09:29:58;;;;;;;10.88;5.97;;;;;;;7.33;75.93;99550.66;4993226;28;20116;-72
2020/12/07 09:32:23;;;;;;;10.63;5.53;;;;;;;7.22;76.07;99532.69;4993004;28;20037;-71
2020/12/07 09:34:49;;;;;;;12.95;5.72;;;;;;;7.05;76.14;99507.16;4975724;28;20173;-72
2020/12/07 09:37:14;;;;;;;13.25;5.75;;;;;;;6.99;76.74;99522.56;4960998;28;20034;-72
2020/12/07 09:39:40;;;;;;;13.20;7.03;;;;;;;7.14;77.56;99557.03;4996797;28;20491;-72
2020/12/07 09:42:05;;;;;;;13.18;6.55;;;;;;;7.20;77.09;99561.13;4979545;28;20030;-72
2020/12/07 09:44:31;;;;;;;11.77;6.32;;;;;;;7.15;77.46;99547.28;4996512;28;20031;-73
2020/12/07 09:46:56;;;;;;;11.88;5.88;;;;;;;7.22;77.60;99553.91;4996589;28;20117;-71
2020/12/07 09:49:22;;;;;;;10.90;6.03;;;;;;;6.96;77.92;99520.09;4963058;28;20476;-73
2020/12/07 09:51:47;;;;;;;13.18;7.32;;;;;;;7.17;78.42;99556.00;4996643;28;20046;-72
2020/12/07 09:54:14;;;;;;;11.98;6.35;;;;;;;7.22;78.28;99558.38;4979183;28;20384;-71
2020/12/07 09:56:39;;;;;;;12.60;6.50;;;;;;;7.17;79.31;99562.16;4996382;28;20121;-73
2020/12/07 09:59:04;;;;;;;12.55;6.95;;;;;;;6.84;79.48;99506.56;4963113;28;20125;-73
2020/12/07 10:01:30;;;;;;;12.88;6.93;;;;;;;7.24;79.51;99565.31;4996243;28;20062;-73
2020/12/07 10:03:55;;;;;;;11.10;6.32;;;;;;;7.27;79.78;99557.19;4996376;28;20045;-73
2020/12/07 10:06:21;;;;;;;15.05;7.47;;;;;;;7.21;80.97;99569.94;4996281;28;20384;-73
2020/12/07 10:08:46;;;;;;;12.55;6.68;;;;;;;7.26;80.89;99568.72;4996446;28;20121;-72
2020/12/07 10:11:15;;;;;;;15.00;8.43;;;;;;;7.13;81.43;99567.69;4978947;28;20034;-72
2020/12/07 10:13:42;;;;;;;14.23;7.43;;;;;;;7.07;81.96;99555.66;4996006;28;20042;-73
2020/12/07 10:16:08;;;;;;;14.07;6.97;;;;;;;6.89;81.07;99517.78;4996039;28;20049;-72
2020/12/07 10:18:33;;;;;;;12.85;7.32;;;;;;;7.13;82.02;99573.00;4978386;28;20042;-72
2020/12/07 10:20:59;;;;;;;15.20;7.95;;;;;;;7.14;82.62;99572.06;4996223;28;20387;-71
2020/12/07 10:23:24;;;;;;;15.00;6.90;;;;;;;7.20;81.86;99558.47;4978429;28;20093;-73
2020/12/07 10:25:53;;;;;;;14.02;7.65;;;;;;;7.22;81.83;99558.38;4978506;28;20030;-73
2020/12/07 10:28:19;;;;;;;14.18;7.90;;;;;;;7.25;82.04;99574.97;4996216;28;20372;-72
2020/12/07 10:30:44;;;;;;;17.58;8.05;;;;;;;7.14;83.07;99566.75;4995629;28;20037;-72
2020/12/07 10:33:11;;;;;;;16.58;8.27;;;;;;;7.11;83.40;99556.34;4978519;28;20920;-72
2020/12/07 10:35:37;;;;;;;15.88;8.35;;;;;;;7.19;84.17;99570.03;4995678;28;20042;-72
2020/12/07 10:38:02;;;;;;;15.00;7.72;;;;;;;7.04;83.91;99558.47;4995779;28;20030;-72
2020/12/07 10:40:28;;;;;;;14.05;8.05;;;;;;;7.05;82.92;99560.22;4995530;28;20041;-71
2020/12/07 10:42:53;;;;;;;15.48;8.52;;;;;;;7.03;83.84;99564.72;4995616;28;20034;-72
2020/12/07 10:45:19;;;;;;;15.52;8.45;;;;;;;6.93;83.52;99568.81;4978303;28;20560;-71
2020/12/07 10:47:44;;;;;;;14.63;8.15;;;;;;;6.70;83.91;99540.97;4977581;28;20042;-73
2020/12/07 10:50:09;;;;;;;17.15;8.82;;;;;;;6.77;84.39;99555.59;4994879;28;20169;-72
2020/12/07 10:52:35;;;;;;;15.88;9.13;;;;;;;6.64;85.36;99541.28;4995392;28;20041;-72
2020/12/07 10:55:00;;;;;;;16.35;8.48;;;;;;;6.93;84.98;99579.44;4995359;28;20124;-72
2020/12/07 10:57:26;;;;;;;17.42;8.88;;;;;;;6.93;85.31;99571.47;4978077;28;20074;-72
2020/12/07 10:59:51;;;;;;;13.93;7.90;;;;;;;6.96;84.53;99575.78;4977948;28;20448;-72
2020/12/07 11:02:18;;;;;;;14.82;7.63;;;;;;;6.74;84.12;99545.16;4995355;28;20030;-72
2020/12/07 11:04:44;;;;;;;16.05;8.05;;;;;;;6.82;84.47;99571.22;4995032;28;20046;-72
2020/12/07 11:07:13;;;;;;;17.80;8.93;;;;;;;6.76;85.71;99580.41;4995044;28;20045;-71
2020/12/07 11:09:38;;;;;;;15.35;7.32;;;;;;;6.79;85.38;99566.97;4995032;28;20030;-71
2020/12/07 11:12:10;;;;;;;14.75;7.63;;;;;;;6.65;85.14;99566.84;4995213;28;20041;-72
2020/12/07 11:14:35;;;;;;;15.45;8.25;;;;;;;6.70;85.19;99572.78;4978175;28;20061;-71
2020/12/07 11:17:01;;;;;;;14.75;7.60;;;;;;;6.69;85.61;99579.00;4994955;28;20468;-71
2020/12/07 11:19:26;;;;;;;15.30;7.63;;;;;;;6.66;85.73;99571.25;4994962;28;20034;-71
2020/12/07 11:21:51;;;;;;;14.40;7.88;;;;;;;6.61;86.18;99562.66;4994838;28;20110;-72
2020/12/07 11:24:17;;;;;;;15.77;8.35;;;;;;;6.67;86.90;99580.91;4977476;28;20042;-72
2020/12/07 11:26:42;;;;;;;15.93;7.95;;;;;;;6.72;86.25;99576.19;4977199;28;20034;-72
2020/12/07 11:29:08;;;;;;;16.77;7.82;;;;;;;6.48;86.81;99562.50;4994677;28;20062;-73
2020/12/07 11:31:33;;;;;;;19.13;8.20;;;;;;;6.75;86.33;99575.16;4976913;28;20038;-72
2020/12/07 11:33:59;;;;;;;16.10;8.77;;;;;;;6.59;86.85;99559.25;4977430;28;20117;-71
2020/12/07 11:36:24;;;;;;;14.48;7.90;;;;;;;6.75;86.76;99580.44;4995061;28;20038;-72
2020/12/07 11:44:13;;;;;;;12.98;7.18;;;;;;;6.62;85.17;99553.78;4994709;28;20472;-72
2020/12/07 11:46:50;;;;;;;15.00;7.45;;;;;;;6.70;84.63;99553.38;4994356;28;20431;-71
2020/12/07 11:49:15;;;;;;;13.85;7.60;;;;;;;6.58;85.68;99554.91;4994338;28;20034;-72
2020/12/07 11:51:41;;;;;;;16.08;7.53;;;;;;;6.65;85.41;99563.34;4973296;28;20504;-71
2020/12/07 11:54:07;;;;;;;14.98;7.78;;;;;;;6.41;84.22;99525.81;4974787;28;20054;-73
2020/12/07 11:56:37;;;;;;;13.80;7.10;;;;;;;6.57;84.59;99555.84;4974592;28;20082;-72
2020/12/07 11:59:03;;;;;;;14.15;8.20;;;;;;;6.73;84.36;99567.28;4973943;28;20097;-72
2020/12/07 12:01:36;;;;;;;12.10;6.60;;;;;;;6.65;84.55;99569.50;4972544;28;20432;-73
2020/12/07 12:04:03;;;;;;;14.17;7.33;;;;;;;6.61;84.79;99573.28;4973695;28;20043;-71
2020/12/07 12:06:31;;;;;;;14.07;7.18;;;;;;;6.57;84.64;99561.16;4974610;28;20026;-73
2020/12/07 12:09:03;;;;;;;15.95;7.85;;;;;;;6.64;85.38;99566.94;4974626;28;20039;-72
2020/12/07 12:11:31;;;;;;;13.57;7.47;;;;;;;6.61;85.36;99562.66;4974631;28;20039;-73
2020/12/07 12:13:58;;;;;;;14.45;7.45;;;;;;;6.66;85.74;99571.25;4974468;28;20030;-72
2020/12/07 12:16:24;;;;;;;12.80;7.80;;;;;;;6.40;86.17;99510.88;4973427;28;20062;-72